Terminal Aerodrome Forecast
Issued by NWS Mt. Holly, NJ

Home | Current Version | Previous Version | Text Only | Print | Product List | Glossary On
Versions: 1 2 3 4 5 6 7 8 9 10 11 12 13 14 15
000
FTUS41 KPHI 271736
TAFABE
TAF
KABE 271736Z 2718/2818 22008KT P6SM SCT050
     FM280100 20004KT P6SM SCT250
     FM280800 VRB03KT 4SM BR SCT250
     FM281400 22006KT P6SM SCT050=

USA.gov is the U.S. government's official web portal to all federal, state and local government web resources and services.